Time;durP1;ratioP1;P1;durP2;ratioP2;P2;SDS_P1;SDS_P2;PMS_P1;PMS_P2;Temp;Humidity;BMP_temperature;BMP_pressure;BME280_temperature;BME280_humidity;BME280_pressure;Samples;Min_cycle;Max_cycle;Signal;HPM_P1;HPM_P2
2023/01/08 00:00:47;;;;;;;3.40;2.10;;;;;;;;;;5070846;28;20031;-61
2023/01/08 00:03:12;;;;;;;2.92;1.80;;;;;;;;;;5072320;28;20024;-60
2023/01/08 00:05:38;;;;;;;3.28;1.92;;;;;;;;;;5074314;28;20040;-60
2023/01/08 00:08:04;;;;;;;2.75;1.70;;;;;;;;;;5090402;28;20131;-61
2023/01/08 00:10:30;;;;;;;4.47;2.10;;;;;;;;;;5071669;28;20032;-60
2023/01/08 00:12:55;;;;;;;2.95;2.15;;;;;;;;;;5070769;28;20039;-61
2023/01/08 00:15:20;;;;;;;5.95;2.13;;;;;;;;;;5083203;28;20098;-60
2023/01/08 00:17:46;;;;;;;2.70;1.95;;;;;;;;;;5072401;28;20043;-61
2023/01/08 00:20:12;;;;;;;3.30;2.00;;;;;;;;;;5081764;28;20028;-61
2023/01/08 00:22:37;;;;;;;3.58;2.20;;;;;;;;;;5073363;28;20029;-60
2023/01/08 00:25:03;;;;;;;4.07;2.00;;;;;;;;;;5069180;28;20425;-62
2023/01/08 00:27:29;;;;;;;3.35;2.00;;;;;;;;;;5072065;28;20043;-60
2023/01/08 00:29:54;;;;;;;4.80;1.70;;;;;;;;;;5069999;28;20032;-60
2023/01/08 00:32:20;;;;;;;2.70;2.00;;;;;;;;;;5064736;28;20112;-60
2023/01/08 00:34:45;;;;;;;3.15;2.15;;;;;;;;;;5080733;28;20465;-60
2023/01/08 00:37:11;;;;;;;4.00;1.52;;;;;;;;;;5071047;28;20127;-60
2023/01/08 00:39:36;;;;;;;2.80;1.70;;;;;;;;;;5067540;28;20115;-59
2023/01/08 00:42:01;;;;;;;3.90;1.80;;;;;;;;;;5069508;28;20985;-61
2023/01/08 00:44:27;;;;;;;2.83;1.90;;;;;;;;;;5070830;28;20028;-60
2023/01/08 00:46:52;;;;;;;2.13;1.60;;;;;;;;;;5069501;28;20122;-59
2023/01/08 00:49:17;;;;;;;3.42;1.90;;;;;;;;;;5069960;28;20085;-61
2023/01/08 00:51:43;;;;;;;2.83;1.90;;;;;;;;;;5067079;28;20035;-61
2023/01/08 00:54:10;;;;;;;2.28;1.65;;;;;;;;;;5070006;28;20039;-61
2023/01/08 00:56:35;;;;;;;2.80;1.73;;;;;;;;;;5070958;28;20032;-60
2023/01/08 00:59:01;;;;;;;3.40;1.90;;;;;;;;;;5070211;28;20059;-60
2023/01/08 01:01:26;;;;;;;3.75;1.60;;;;;;;;;;5071634;28;20047;-59
2023/01/08 01:03:52;;;;;;;2.63;1.80;;;;;;;;;;5073644;28;20045;-60
2023/01/08 01:06:17;;;;;;;2.92;1.73;;;;;;;;;;5058137;28;20032;-60
2023/01/08 01:08:43;;;;;;;3.00;2.00;;;;;;;;;;5078620;28;20400;-59
2023/01/08 01:11:21;;;;;;;2.60;1.88;;;;;;;;;;5068785;28;20187;-61
2023/01/08 01:13:47;;;;;;;2.42;1.73;;;;;;;;;;5066803;28;20056;-59
2023/01/08 01:16:12;;;;;;;3.30;1.88;;;;;;;;;;5068496;28;20036;-61
2023/01/08 01:18:38;;;;;;;2.60;1.83;;;;;;;;;;5067011;28;20393;-60
2023/01/08 01:21:17;;;;;;;3.22;1.85;;;;;;;;;;5057617;28;20364;-62
2023/01/08 01:23:42;;;;;;;3.35;1.90;;;;;;;;;;5069927;28;20453;-59
2023/01/08 01:26:19;;;;;;;2.90;2.00;;;;;;;;;;5070391;28;20473;-61
2023/01/08 01:28:50;;;;;;;2.72;1.85;;;;;;;;;;5072594;28;20036;-60
2023/01/08 01:31:15;;;;;;;2.13;1.60;;;;;;;;;;5068327;28;20033;-60
2023/01/08 01:33:41;;;;;;;3.22;1.80;;;;;;;;;;5070163;28;20056;-60
2023/01/08 01:36:08;;;;;;;2.75;1.83;;;;;;;;;;5070646;28;20052;-62
2023/01/08 01:38:34;;;;;;;3.17;1.95;;;;;;;;;;5084723;28;20054;-60
2023/01/08 01:41:00;;;;;;;3.10;1.85;;;;;;;;;;5084480;28;20046;-60
2023/01/08 01:43:40;;;;;;;3.08;1.88;;;;;;;;;;5077831;28;20261;-60
2023/01/08 01:46:19;;;;;;;2.13;1.48;;;;;;;;;;5074658;28;20477;-62
2023/01/08 01:48:48;;;;;;;3.05;1.80;;;;;;;;;;5060770;28;20500;-61
2023/01/08 01:51:13;;;;;;;3.10;1.80;;;;;;;;;;5058904;28;20044;-61
2023/01/08 01:53:40;;;;;;;5.38;1.92;;;;;;;;;;5066773;28;20094;-61
2023/01/08 01:56:07;;;;;;;3.65;1.90;;;;;;;;;;5070719;28;20032;-62
2023/01/08 01:58:32;;;;;;;2.95;1.90;;;;;;;;;;5061241;28;20406;-62
2023/01/08 02:01:02;;;;;;;2.83;1.85;;;;;;;;;;5054393;28;20029;-60
2023/01/08 02:03:34;;;;;;;3.88;1.75;;;;;;;;;;5050694;28;20020;-60
2023/01/08 02:06:09;;;;;;;4.03;2.08;;;;;;;;;;5059351;28;20028;-61
2023/01/08 02:08:52;;;;;;;3.42;2.17;;;;;;;;;;5048456;28;20025;-60
2023/01/08 02:11:39;;;;;;;2.90;1.70;;;;;;;;;;5049940;28;20025;-60
2023/01/08 02:14:29;;;;;;;4.38;2.30;;;;;;;;;;5051066;28;20048;-60
2023/01/08 02:17:09;;;;;;;3.33;1.83;;;;;;;;;;5047320;28;20025;-60
2023/01/08 02:19:43;;;;;;;3.88;2.10;;;;;;;;;;5030809;28;20547;-60
2023/01/08 02:22:18;;;;;;;3.38;1.98;;;;;;;;;;5050964;28;20052;-61
2023/01/08 02:24:57;;;;;;;3.35;1.95;;;;;;;;;;5052602;28;20029;-61
2023/01/08 02:27:26;;;;;;;3.00;2.00;;;;;;;;;;5030500;28;20048;-60
2023/01/08 02:29:53;;;;;;;3.95;2.10;;;;;;;;;;5047533;28;20047;-60
2023/01/08 02:32:22;;;;;;;3.03;1.88;;;;;;;;;;5052789;28;20359;-60
2023/01/08 02:34:47;;;;;;;3.25;2.10;;;;;;;;;;5052400;28;20033;-59
2023/01/08 02:37:13;;;;;;;4.63;2.38;;;;;;;;;;5054485;28;20044;-61
2023/01/08 02:40:19;;;;;;;3.72;2.15;;;;;;;;;;5050733;28;20033;-59
2023/01/08 02:43:11;;;;;;;3.83;2.00;;;;;;;;;;5002140;28;20060;-58
2023/01/08 02:45:48;;;;;;;3.60;1.88;;;;;;;;;;5054270;28;20032;-60
2023/01/08 02:48:22;;;;;;;4.28;2.13;;;;;;;;;;5050756;28;20090;-60
2023/01/08 02:50:53;;;;;;;4.40;2.25;;;;;;;;;;5054482;28;20033;-60
2023/01/08 02:53:26;;;;;;;2.67;1.90;;;;;;;;;;5053907;28;20020;-60
2023/01/08 02:55:55;;;;;;;7.30;2.42;;;;;;;;;;5054908;28;20449;-59
2023/01/08 02:58:24;;;;;;;3.55;1.98;;;;;;;;;;5059492;28;20063;-59
2023/01/08 03:00:52;;;;;;;5.25;2.20;;;;;;;;;;5073900;28;20063;-60
2023/01/08 03:03:26;;;;;;;4.03;2.05;;;;;;;;;;5069358;28;20044;-60
2023/01/08 03:05:55;;;;;;;4.22;2.35;;;;;;;;;;5070849;28;20098;-59
2023/01/08 03:08:22;;;;;;;3.33;2.00;;;;;;;;;;5069330;28;20048;-60
2023/01/08 03:10:54;;;;;;;4.38;2.28;;;;;;;;;;5072194;28;20032;-59
2023/01/08 03:13:41;;;;;;;4.40;2.40;;;;;;;;;;5073018;28;20024;-59
2023/01/08 03:16:40;;;;;;;4.18;2.10;;;;;;;;;;5073212;28;20402;-59
2023/01/08 03:19:11;;;;;;;5.63;2.20;;;;;;;;;;5073268;28;20079;-58
2023/01/08 03:21:38;;;;;;;5.57;2.33;;;;;;;;;;5089764;28;20140;-59
2023/01/08 03:24:05;;;;;;;3.47;2.10;;;;;;;;;;5080783;28;20477;-59
2023/01/08 03:26:31;;;;;;;3.20;2.08;;;;;;;;;;5087107;28;20042;-60
2023/01/08 03:28:57;;;;;;;3.67;2.10;;;;;;;;;;5073802;28;20097;-58
2023/01/08 03:31:26;;;;;;;3.22;2.08;;;;;;;;;;5071522;28;20040;-60
2023/01/08 03:33:53;;;;;;;3.85;2.30;;;;;;;;;;5070700;28;20037;-60
2023/01/08 03:36:27;;;;;;;2.97;1.83;;;;;;;;;;5072842;28;20106;-57
2023/01/08 03:39:02;;;;;;;5.90;2.20;;;;;;;;;;5070288;28;20143;-60
2023/01/08 03:41:31;;;;;;;4.32;2.10;;;;;;;;;;5075936;28;20116;-60
2023/01/08 03:43:56;;;;;;;3.30;2.00;;;;;;;;;;5070231;28;20481;-61
2023/01/08 03:46:47;;;;;;;3.38;2.20;;;;;;;;;;5073117;28;20056;-61
2023/01/08 03:49:14;;;;;;;3.22;2.10;;;;;;;;;;5073095;28;20576;-62
2023/01/08 03:51:45;;;;;;;5.63;2.10;;;;;;;;;;5069890;28;20052;-61
2023/01/08 03:54:15;;;;;;;3.88;2.17;;;;;;;;;;5073627;28;20032;-59
2023/01/08 03:56:41;;;;;;;3.20;2.00;;;;;;;;;;5069307;28;20481;-60
2023/01/08 03:59:06;;;;;;;2.95;1.80;;;;;;;;;;5053853;28;20087;-59
2023/01/08 04:01:32;;;;;;;3.15;1.80;;;;;;;;;;5049840;28;20508;-60
2023/01/08 04:03:57;;;;;;;4.72;1.83;;;;;;;;;;5048388;28;21794;-60
2023/01/08 04:06:23;;;;;;;4.25;2.20;;;;;;;;;;5033016;28;20055;-58
2023/01/08 04:08:48;;;;;;;2.83;1.95;;;;;;;;;;5059014;28;20127;-60
2023/01/08 04:11:13;;;;;;;3.08;1.90;;;;;;;;;;5042982;28;20427;-62
2023/01/08 04:13:39;;;;;;;3.92;2.00;;;;;;;;;;5054060;28;20040;-60
2023/01/08 04:16:04;;;;;;;2.70;1.85;;;;;;;;;;5068166;28;21273;-60
2023/01/08 04:18:30;;;;;;;3.05;2.05;;;;;;;;;;5052362;28;20036;-60
2023/01/08 04:20:55;;;;;;;2.88;1.90;;;;;;;;;;5036725;28;20466;-60
2023/01/08 04:23:21;;;;;;;3.42;1.98;;;;;;;;;;5058734;28;20067;-61
2023/01/08 04:25:46;;;;;;;3.45;2.10;;;;;;;;;;5072494;28;20461;-61
2023/01/08 04:28:11;;;;;;;3.10;2.00;;;;;;;;;;5036968;28;20076;-60
2023/01/08 04:30:37;;;;;;;3.13;1.80;;;;;;;;;;5065508;28;20040;-60
2023/01/08 04:33:02;;;;;;;2.88;1.85;;;;;;;;;;5053542;28;20036;-61
2023/01/08 04:35:28;;;;;;;3.38;2.20;;;;;;;;;;5049732;28;20025;-60
2023/01/08 04:37:53;;;;;;;2.60;1.73;;;;;;;;;;5034108;28;20064;-61
2023/01/08 04:40:18;;;;;;;4.10;1.90;;;;;;;;;;5058205;28;20033;-62
2023/01/08 04:42:44;;;;;;;4.13;1.88;;;;;;;;;;5051809;28;20094;-60
2023/01/08 04:45:09;;;;;;;3.05;1.90;;;;;;;;;;5051143;28;20063;-60
2023/01/08 04:47:35;;;;;;;2.10;1.70;;;;;;;;;;5050898;28;20078;-60
2023/01/08 04:50:00;;;;;;;2.55;1.77;;;;;;;;;;5052394;28;20149;-59
2023/01/08 04:52:27;;;;;;;4.25;1.85;;;;;;;;;;5066229;28;20442;-61
2023/01/08 04:54:53;;;;;;;2.45;1.83;;;;;;;;;;5034562;28;20029;-59
2023/01/08 04:57:18;;;;;;;2.97;1.88;;;;;;;;;;5048817;28;20039;-62
2023/01/08 04:59:43;;;;;;;3.80;1.90;;;;;;;;;;5073057;28;20040;-59
2023/01/08 05:02:09;;;;;;;2.85;1.90;;;;;;;;;;5067496;28;20382;-60
2023/01/08 05:04:34;;;;;;;3.45;1.85;;;;;;;;;;5069647;28;20036;-59
2023/01/08 05:07:00;;;;;;;3.05;2.10;;;;;;;;;;5069924;28;20032;-61
2023/01/08 05:09:25;;;;;;;2.90;1.80;;;;;;;;;;5069323;28;20119;-60
2023/01/08 05:11:50;;;;;;;3.22;1.90;;;;;;;;;;5072979;28;20116;-60
2023/01/08 05:14:16;;;;;;;2.17;1.60;;;;;;;;;;5067895;28;20086;-59
2023/01/08 05:16:41;;;;;;;3.75;1.90;;;;;;;;;;5070328;28;20039;-59
2023/01/08 05:19:06;;;;;;;2.00;1.55;;;;;;;;;;5073857;28;20043;-60
2023/01/08 05:21:32;;;;;;;2.40;1.60;;;;;;;;;;5071969;28;20033;-60
2023/01/08 05:23:57;;;;;;;6.05;1.80;;;;;;;;;;5069934;28;20036;-59
2023/01/08 05:26:23;;;;;;;3.72;1.60;;;;;;;;;;5066588;28;20052;-62
2023/01/08 05:28:48;;;;;;;3.05;1.80;;;;;;;;;;5070594;28;20412;-61
2023/01/08 05:31:14;;;;;;;2.50;1.52;;;;;;;;;;5052247;28;20025;-59
2023/01/08 05:33:39;;;;;;;1.83;1.30;;;;;;;;;;5061448;28;20094;-61
2023/01/08 05:36:07;;;;;;;3.10;1.60;;;;;;;;;;5058678;28;20033;-59
2023/01/08 05:38:32;;;;;;;1.70;1.30;;;;;;;;;;5065454;28;20036;-61
2023/01/08 05:40:57;;;;;;;2.60;1.60;;;;;;;;;;5069679;28;20035;-61
2023/01/08 05:43:23;;;;;;;2.17;1.38;;;;;;;;;;5070206;28;20035;-62
2023/01/08 05:45:48;;;;;;;3.17;1.60;;;;;;;;;;5090730;28;20570;-60
2023/01/08 05:48:14;;;;;;;1.65;1.40;;;;;;;;;;5092359;28;20024;-60
2023/01/08 05:50:39;;;;;;;1.90;1.27;;;;;;;;;;5088108;28;20400;-59
2023/01/08 05:53:06;;;;;;;1.63;1.42;;;;;;;;;;5089762;28;20077;-60
2023/01/08 05:55:32;;;;;;;2.38;1.50;;;;;;;;;;5088661;28;20040;-60
2023/01/08 05:58:01;;;;;;;2.60;1.50;;;;;;;;;;5088177;28;20446;-59
2023/01/08 06:00:26;;;;;;;2.03;1.35;;;;;;;;;;5079191;28;20445;-60
2023/01/08 06:02:52;;;;;;;2.58;1.60;;;;;;;;;;5070863;28;20040;-58
2023/01/08 06:05:17;;;;;;;2.13;1.30;;;;;;;;;;5069304;28;20028;-61
2023/01/08 06:07:42;;;;;;;1.98;1.45;;;;;;;;;;5070632;28;20659;-60
2023/01/08 06:10:08;;;;;;;3.92;1.48;;;;;;;;;;5073766;28;20031;-59
2023/01/08 06:12:34;;;;;;;1.85;1.33;;;;;;;;;;5070424;28;20515;-59
2023/01/08 06:14:59;;;;;;;2.50;1.50;;;;;;;;;;5069939;28;20381;-59
2023/01/08 06:17:24;;;;;;;1.80;1.42;;;;;;;;;;5070594;28;20412;-61
2023/01/08 06:19:50;;;;;;;3.22;1.83;;;;;;;;;;5070560;28;20074;-59
2023/01/08 06:22:15;;;;;;;1.85;1.40;;;;;;;;;;5071830;28;20468;-58
2023/01/08 06:24:41;;;;;;;1.45;1.27;;;;;;;;;;5068582;28;20497;-58
2023/01/08 06:27:06;;;;;;;1.88;1.40;;;;;;;;;;5066498;28;20086;-61
2023/01/08 06:29:32;;;;;;;1.50;1.30;;;;;;;;;;5061176;28;20513;-59
2023/01/08 06:31:58;;;;;;;2.28;1.55;;;;;;;;;;5071709;28;20028;-59
2023/01/08 06:34:23;;;;;;;2.00;1.40;;;;;;;;;;5078302;28;20369;-61
2023/01/08 06:36:50;;;;;;;2.70;1.50;;;;;;;;;;5060724;28;20060;-60
2023/01/08 06:39:16;;;;;;;3.33;1.25;;;;;;;;;;5065534;28;20047;-60
2023/01/08 06:41:42;;;;;;;1.52;1.30;;;;;;;;;;5090780;28;20469;-61
2023/01/08 06:44:07;;;;;;;2.63;1.45;;;;;;;;;;5081817;28;20103;-58
2023/01/08 06:46:37;;;;;;;2.67;1.35;;;;;;;;;;5070802;28;20112;-60
2023/01/08 06:49:02;;;;;;;4.20;1.98;;;;;;;;;;5071489;28;20051;-59
2023/01/08 06:51:28;;;;;;;3.08;1.30;;;;;;;;;;5069736;28;20106;-61
2023/01/08 06:53:53;;;;;;;2.30;1.27;;;;;;;;;;5076053;28;20024;-59
2023/01/08 06:56:18;;;;;;;3.80;1.55;;;;;;;;;;5091665;28;20035;-58
2023/01/08 06:58:44;;;;;;;3.10;1.40;;;;;;;;;;5085310;28;20047;-59
2023/01/08 07:01:13;;;;;;;2.47;1.40;;;;;;;;;;5069698;28;20401;-59
2023/01/08 07:03:38;;;;;;;2.95;1.50;;;;;;;;;;5070087;28;20032;-58
2023/01/08 07:06:04;;;;;;;4.00;1.88;;;;;;;;;;5075070;28;20076;-59
2023/01/08 07:08:29;;;;;;;2.67;1.60;;;;;;;;;;5078102;28;20421;-61
2023/01/08 07:10:55;;;;;;;3.33;1.55;;;;;;;;;;5087762;28;20036;-61
2023/01/08 07:13:22;;;;;;;2.33;1.25;;;;;;;;;;5082642;28;20145;-60
2023/01/08 07:15:48;;;;;;;1.65;1.17;;;;;;;;;;5069150;28;20036;-57
2023/01/08 07:18:13;;;;;;;6.03;3.03;;;;;;;;;;5089789;28;20032;-58
2023/01/08 07:20:39;;;;;;;4.30;2.08;;;;;;;;;;5092843;28;20035;-57
2023/01/08 07:23:10;;;;;;;5.68;2.15;;;;;;;;;;5092021;28;20036;-58
2023/01/08 07:25:35;;;;;;;10.65;3.45;;;;;;;;;;5080870;28;20055;-59
2023/01/08 07:28:00;;;;;;;8.85;3.72;;;;;;;;;;5076309;28;20370;-60
2023/01/08 07:30:27;;;;;;;7.07;3.53;;;;;;;;;;5075406;28;20040;-61
2023/01/08 07:32:52;;;;;;;6.22;2.70;;;;;;;;;;5072965;28;20032;-59
2023/01/08 07:35:18;;;;;;;4.30;2.35;;;;;;;;;;5087502;28;20032;-60
2023/01/08 07:37:43;;;;;;;5.95;2.05;;;;;;;;;;5073829;28;20453;-60
2023/01/08 07:40:10;;;;;;;4.45;1.90;;;;;;;;;;5080135;28;20027;-59
2023/01/08 07:42:36;;;;;;;6.25;2.75;;;;;;;;;;5090044;28;20028;-59
2023/01/08 07:45:02;;;;;;;5.57;2.22;;;;;;;;;;5091163;28;20039;-62
2023/01/08 07:47:27;;;;;;;5.38;1.80;;;;;;;;;;5069905;28;20039;-61
2023/01/08 07:49:53;;;;;;;4.35;1.60;;;;;;;;;;5072433;28;20405;-57
2023/01/08 07:52:18;;;;;;;4.82;2.10;;;;;;;;;;5071681;28;20033;-60
2023/01/08 07:54:43;;;;;;;6.07;2.20;;;;;;;;;;5062660;28;20362;-59
2023/01/08 07:57:09;;;;;;;3.65;1.75;;;;;;;;;;5074296;28;20484;-58
2023/01/08 07:59:34;;;;;;;6.68;1.95;;;;;;;;;;5065695;28;20425;-58
2023/01/08 08:02:00;;;;;;;2.72;1.67;;;;;;;;;;5058842;28;20036;-60
2023/01/08 08:04:25;;;;;;;3.05;1.50;;;;;;;;;;5062520;28;20074;-58
2023/01/08 08:06:51;;;;;;;4.22;1.75;;;;;;;;;;5073283;28;20124;-59
2023/01/08 08:09:16;;;;;;;4.35;1.80;;;;;;;;;;5069221;28;20024;-60
2023/01/08 08:11:41;;;;;;;3.05;1.77;;;;;;;;;;5070464;28;20044;-61
2023/01/08 08:14:08;;;;;;;3.03;1.70;;;;;;;;;;5078314;28;20038;-60
2023/01/08 08:16:33;;;;;;;1.55;1.25;;;;;;;;;;5079629;28;20388;-61
2023/01/08 08:18:59;;;;;;;3.85;1.67;;;;;;;;;;5075924;28;20028;-59
2023/01/08 08:21:24;;;;;;;5.75;2.30;;;;;;;;;;5091215;28;20047;-58
2023/01/08 08:23:50;;;;;;;4.05;1.90;;;;;;;;;;5088031;28;20021;-60
2023/01/08 08:26:15;;;;;;;4.53;2.03;;;;;;;;;;5071978;28;20085;-60
2023/01/08 08:28:41;;;;;;;8.65;2.10;;;;;;;;;;5071860;28;20115;-58
2023/01/08 08:31:06;;;;;;;3.15;1.70;;;;;;;;;;5071763;28;20400;-60
2023/01/08 08:33:32;;;;;;;4.65;2.08;;;;;;;;;;5066320;28;20039;-62
2023/01/08 08:35:57;;;;;;;4.63;2.15;;;;;;;;;;5052105;28;20025;-60
2023/01/08 08:38:23;;;;;;;3.97;1.60;;;;;;;;;;5075394;28;20047;-60
2023/01/08 08:40:49;;;;;;;3.47;1.88;;;;;;;;;;5054618;28;20879;-60
2023/01/08 08:43:14;;;;;;;3.13;1.65;;;;;;;;;;5072421;28;20115;-60
2023/01/08 08:45:40;;;;;;;5.20;1.58;;;;;;;;;;5071255;28;20469;-61
2023/01/08 08:48:06;;;;;;;3.78;1.65;;;;;;;;;;5072530;28;20052;-60
2023/01/08 08:50:32;;;;;;;5.28;1.40;;;;;;;;;;5072204;28;20040;-62
2023/01/08 08:53:01;;;;;;;4.85;1.70;;;;;;;;;;5084755;28;20032;-61
2023/01/08 08:55:27;;;;;;;8.80;2.05;;;;;;;;;;5092955;28;20028;-60
2023/01/08 08:57:53;;;;;;;3.90;1.70;;;;;;;;;;5070586;28;20084;-61
2023/01/08 09:00:18;;;;;;;4.22;1.60;;;;;;;;;;5062076;28;20481;-61
2023/01/08 09:02:44;;;;;;;4.35;1.30;;;;;;;;;;5065682;28;20173;-55
2023/01/08 09:05:10;;;;;;;4.90;1.48;;;;;;;;;;5069923;28;20034;-53
2023/01/08 09:07:36;;;;;;;5.53;1.10;;;;;;;;;;5071496;28;20059;-56
2023/01/08 09:10:02;;;;;;;5.70;1.60;;;;;;;;;;5081199;28;20441;-55
2023/01/08 09:12:28;;;;;;;2.70;1.17;;;;;;;;;;5092934;28;20032;-55
2023/01/08 09:14:53;;;;;;;5.72;1.65;;;;;;;;;;5082746;28;20629;-56
2023/01/08 09:17:20;;;;;;;4.53;1.40;;;;;;;;;;5083561;28;20377;-55
2023/01/08 09:19:46;;;;;;;4.80;1.30;;;;;;;;;;5084330;28;20039;-51
2023/01/08 09:22:11;;;;;;;4.53;1.42;;;;;;;;;;5066798;28;20040;-54
2023/01/08 09:24:37;;;;;;;5.63;1.88;;;;;;;;;;5063877;28;20214;-53
2023/01/08 09:27:02;;;;;;;2.83;1.42;;;;;;;;;;5074790;28;20028;-61
2023/01/08 09:29:28;;;;;;;5.85;1.33;;;;;;;;;;5070296;28;20054;-60
2023/01/08 09:31:54;;;;;;;3.47;1.50;;;;;;;;;;5070467;28;20461;-61
2023/01/08 09:34:19;;;;;;;10.90;2.30;;;;;;;;;;5072485;28;20032;-61
2023/01/08 09:36:45;;;;;;;2.38;1.20;;;;;;;;;;5071510;28;20027;-61
2023/01/08 09:39:10;;;;;;;7.93;1.83;;;;;;;;;;5092671;28;20040;-61
2023/01/08 09:41:40;;;;;;;5.07;1.50;;;;;;;;;;5077451;28;20040;-64
2023/01/08 09:44:06;;;;;;;5.57;1.40;;;;;;;;;;5051549;28;20033;-61
2023/01/08 09:46:33;;;;;;;6.93;1.77;;;;;;;;;;5052475;28;20481;-61
2023/01/08 09:49:03;;;;;;;7.40;1.80;;;;;;;;;;5066497;28;20032;-61
2023/01/08 09:51:38;;;;;;;3.55;1.30;;;;;;;;;;5066993;28;20469;-60
2023/01/08 09:54:06;;;;;;;8.00;1.88;;;;;;;;;;5072197;28;20036;-59
2023/01/08 09:56:33;;;;;;;7.78;1.73;;;;;;;;;;5080074;28;20492;-57
2023/01/08 09:59:01;;;;;;;7.63;1.75;;;;;;;;;;5071907;28;20052;-57
2023/01/08 10:01:35;;;;;;;5.22;1.65;;;;;;;;;;5070143;28;20042;-58
2023/01/08 10:04:13;;;;;;;6.00;1.20;;;;;;;;;;5052051;28;20033;-56
2023/01/08 10:06:50;;;;;;;4.93;1.40;;;;;;;;;;5065857;28;20491;-60
2023/01/08 10:09:20;;;;;;;7.05;1.73;;;;;;;;;;5077934;28;20472;-56
2023/01/08 10:11:47;;;;;;;9.23;2.00;;;;;;;;;;5088053;28;20042;-58
2023/01/08 10:14:20;;;;;;;6.05;1.83;;;;;;;;;;5089629;28;20085;-57
2023/01/08 10:16:51;;;;;;;8.63;1.70;;;;;;;;;;5088718;28;20028;-59
2023/01/08 10:19:17;;;;;;;7.90;1.70;;;;;;;;;;5084768;28;20036;-58
2023/01/08 10:21:42;;;;;;;4.97;1.55;;;;;;;;;;5073182;28;20110;-58
2023/01/08 10:24:07;;;;;;;5.35;1.85;;;;;;;;;;5071833;28;20071;-58
2023/01/08 10:26:35;;;;;;;5.28;1.40;;;;;;;;;;5078854;28;20035;-57
2023/01/08 10:29:14;;;;;;;6.25;2.10;;;;;;;;;;5061971;28;20036;-59
2023/01/08 10:31:52;;;;;;;5.82;1.42;;;;;;;;;;5069839;28;20077;-62
2023/01/08 10:34:38;;;;;;;6.97;1.60;;;;;;;;;;5091803;28;20512;-59
2023/01/08 10:37:24;;;;;;;2.25;1.30;;;;;;;;;;5068353;28;20060;-61
2023/01/08 10:39:52;;;;;;;8.27;1.45;;;;;;;;;;5070243;28;20071;-60
2023/01/08 10:42:20;;;;;;;3.30;1.23;;;;;;;;;;5071187;28;20040;-59
2023/01/08 10:45:00;;;;;;;4.97;1.60;;;;;;;;;;5067491;28;20028;-58
2023/01/08 10:47:29;;;;;;;3.30;1.20;;;;;;;;;;5068165;28;20059;-58
2023/01/08 10:49:56;;;;;;;6.03;1.60;;;;;;;;;;5062617;28;20033;-58
2023/01/08 10:52:33;;;;;;;5.28;2.00;;;;;;;;;;5052264;28;20532;-55
2023/01/08 10:55:21;;;;;;;5.68;1.50;;;;;;;;;;5067910;28;20025;-58
2023/01/08 10:58:11;;;;;;;6.70;2.03;;;;;;;;;;5057539;28;20071;-57
2023/01/08 11:00:37;;;;;;;4.50;1.38;;;;;;;;;;5055604;28;20089;-61
2023/01/08 11:03:07;;;;;;;5.45;1.63;;;;;;;;;;5071607;28;20040;-58
2023/01/08 11:05:41;;;;;;;4.32;1.25;;;;;;;;;;5071626;28;20437;-58
2023/01/08 11:08:15;;;;;;;4.63;1.42;;;;;;;;;;5073757;28;20028;-58
2023/01/08 11:10:40;;;;;;;3.50;1.40;;;;;;;;;;5074347;28;20159;-62
2023/01/08 11:13:07;;;;;;;4.65;1.15;;;;;;;;;;5073694;28;20063;-58
2023/01/08 11:15:40;;;;;;;3.38;1.50;;;;;;;;;;5071704;28;20040;-58
2023/01/08 11:18:10;;;;;;;5.03;1.75;;;;;;;;;;5074587;28;20031;-58
2023/01/08 11:20:36;;;;;;;5.43;1.60;;;;;;;;;;5074411;28;20028;-58
2023/01/08 11:23:13;;;;;;;4.28;1.50;;;;;;;;;;5073102;28;20524;-59
2023/01/08 11:25:41;;;;;;;4.43;1.35;;;;;;;;;;5089026;28;20029;-62
2023/01/08 11:28:14;;;;;;;3.33;1.40;;;;;;;;;;5069938;28;20048;-59
2023/01/08 11:30:45;;;;;;;6.40;1.48;;;;;;;;;;5065258;28;20071;-62
2023/01/08 11:33:16;;;;;;;2.97;1.55;;;;;;;;;;5073837;28;20112;-58
2023/01/08 11:35:47;;;;;;;6.55;1.65;;;;;;;;;;5052891;28;20051;-64
2023/01/08 11:38:13;;;;;;;5.47;1.92;;;;;;;;;;5060225;28;20058;-57
2023/01/08 11:41:10;;;;;;;5.00;1.60;;;;;;;;;;5067751;28;20172;-56
2023/01/08 11:43:58;;;;;;;4.30;1.30;;;;;;;;;;5062138;28;20047;-58
2023/01/08 11:47:01;;;;;;;1.92;1.10;;;;;;;;;;5060357;28;20029;-59
2023/01/08 11:49:32;;;;;;;4.07;1.30;;;;;;;;;;5054127;28;20444;-56
2023/01/08 11:52:32;;;;;;;2.58;1.27;;;;;;;;;;5053266;28;20029;-57
2023/01/08 11:55:23;;;;;;;1.83;1.23;;;;;;;;;;5061381;28;20531;-56
2023/01/08 11:58:12;;;;;;;1.83;1.02;;;;;;;;;;5067153;28;20469;-58
2023/01/08 12:00:45;;;;;;;3.63;1.20;;;;;;;;;;5071000;28;20477;-58
2023/01/08 12:03:30;;;;;;;2.53;1.20;;;;;;;;;;5072955;28;20053;-57
2023/01/08 12:06:37;;;;;;;2.70;1.13;;;;;;;;;;5074973;28;20387;-58
2023/01/08 12:09:14;;;;;;;3.33;1.20;;;;;;;;;;5082416;28;20098;-58
2023/01/08 12:11:59;;;;;;;3.38;1.10;;;;;;;;;;5090894;28;20133;-58
2023/01/08 12:14:38;;;;;;;1.50;0.93;;;;;;;;;;5080818;28;20502;-57
2023/01/08 12:17:15;;;;;;;1.67;1.13;;;;;;;;;;5072259;28;20032;-57
2023/01/08 12:19:41;;;;;;;4.35;1.33;;;;;;;;;;5073623;28;20024;-55
2023/01/08 12:22:12;;;;;;;2.53;1.40;;;;;;;;;;5072214;28;20041;-56
2023/01/08 12:25:11;;;;;;;3.25;1.20;;;;;;;;;;5084737;28;20036;-57
2023/01/08 12:27:40;;;;;;;2.45;1.10;;;;;;;;;;5073657;28;20462;-57
2023/01/08 12:30:33;;;;;;;3.30;1.40;;;;;;;;;;5072373;28;20552;-56
2023/01/08 12:33:08;;;;;;;4.20;1.38;;;;;;;;;;5082478;28;20043;-56
2023/01/08 12:35:46;;;;;;;3.08;1.35;;;;;;;;;;5085325;28;20031;-56
2023/01/08 12:38:14;;;;;;;2.55;1.20;;;;;;;;;;5072778;28;20107;-56
2023/01/08 12:40:55;;;;;;;2.33;1.20;;;;;;;;;;5071481;28;20389;-55
2023/01/08 12:43:26;;;;;;;2.58;1.10;;;;;;;;;;5072994;28;20035;-57
2023/01/08 12:45:55;;;;;;;4.25;1.30;;;;;;;;;;5071819;28;20040;-58
2023/01/08 12:48:25;;;;;;;3.17;1.20;;;;;;;;;;5075325;28;20080;-61
2023/01/08 12:51:17;;;;;;;0.60;0.60;;;;;;;;;;5092700;28;20464;-69
2023/01/08 12:53:43;;;;;;;4.93;1.33;;;;;;;;;;5084967;28;20079;-61
2023/01/08 12:56:17;;;;;;;1.70;1.00;;;;;;;;;;5071938;28;20485;-62
2023/01/08 12:58:58;;;;;;;5.53;2.25;;;;;;;;;;5062316;28;20049;-61
2023/01/08 13:01:28;;;;;;;2.83;1.27;;;;;;;;;;5052982;28;20546;-61
2023/01/08 13:03:54;;;;;;;1.77;1.00;;;;;;;;;;5067825;28;20074;-62
2023/01/08 13:06:21;;;;;;;2.75;1.40;;;;;;;;;;5034701;28;20036;-61
2023/01/08 13:08:52;;;;;;;4.10;2.13;;;;;;;;;;5050890;28;20048;-64
2023/01/08 13:11:33;;;;;;;2.28;1.63;;;;;;;;;;5052613;28;20037;-61
2023/01/08 13:14:10;;;;;;;2.50;1.30;;;;;;;;;;5053020;28;20531;-61
2023/01/08 13:16:38;;;;;;;3.92;2.00;;;;;;;;;;5053177;28;20044;-61
2023/01/08 13:19:05;;;;;;;3.70;1.42;;;;;;;;;;5051407;28;20385;-61
2023/01/08 13:21:41;;;;;;;2.65;1.38;;;;;;;;;;5062851;28;20060;-61
2023/01/08 13:24:33;;;;;;;1.58;0.90;;;;;;;;;;5051262;28;20029;-60
2023/01/08 13:27:13;;;;;;;2.92;1.38;;;;;;;;;;5068312;28;20028;-61
2023/01/08 13:29:43;;;;;;;1.35;0.95;;;;;;;;;;5053328;28;20464;-61
2023/01/08 13:32:24;;;;;;;1.30;0.98;;;;;;;;;;5048286;28;20884;-61
2023/01/08 13:35:13;;;;;;;1.88;1.20;;;;;;;;;;5051929;28;20029;-62
2023/01/08 13:37:38;;;;;;;3.65;0.80;;;;;;;;;;5050379;28;20099;-61
2023/01/08 13:40:24;;;;;;;1.25;0.90;;;;;;;;;;5065556;28;20473;-61
2023/01/08 13:42:50;;;;;;;1.50;1.10;;;;;;;;;;5070899;28;20397;-62
2023/01/08 13:45:16;;;;;;;1.38;0.93;;;;;;;;;;5069302;28;20420;-61
2023/01/08 13:47:42;;;;;;;2.38;1.02;;;;;;;;;;5064943;28;20028;-62
2023/01/08 13:50:19;;;;;;;1.10;0.70;;;;;;;;;;5049585;28;20031;-62
2023/01/08 13:52:48;;;;;;;1.35;1.20;;;;;;;;;;5055862;28;20057;-60
2023/01/08 13:55:36;;;;;;;1.33;0.80;;;;;;;;;;5047245;28;20045;-61
2023/01/08 13:58:23;;;;;;;1.27;1.00;;;;;;;;;;5037981;28;20056;-62
2023/01/08 14:00:51;;;;;;;1.10;1.00;;;;;;;;;;5069488;28;20528;-64
2023/01/08 14:03:27;;;;;;;3.88;1.30;;;;;;;;;;5077703;28;20024;-60
2023/01/08 14:06:10;;;;;;;2.70;1.10;;;;;;;;;;5087199;28;20032;-59
2023/01/08 14:08:36;;;;;;;3.58;1.27;;;;;;;;;;5091982;28;20103;-57
2023/01/08 14:11:02;;;;;;;1.45;1.13;;;;;;;;;;5083555;28;20197;-57
2023/01/08 14:13:30;;;;;;;2.13;1.30;;;;;;;;;;5078921;28;20056;-56
2023/01/08 14:16:01;;;;;;;2.28;1.20;;;;;;;;;;5084044;28;20032;-57
2023/01/08 14:18:27;;;;;;;1.75;1.20;;;;;;;;;;5071557;28;20039;-56
2023/01/08 14:20:54;;;;;;;3.28;1.38;;;;;;;;;;5087778;28;20492;-57
2023/01/08 14:23:26;;;;;;;2.88;1.10;;;;;;;;;;5079481;28;20027;-59
2023/01/08 14:25:52;;;;;;;3.28;1.30;;;;;;;;;;5084907;28;20031;-61
2023/01/08 14:28:20;;;;;;;1.42;1.10;;;;;;;;;;5070113;28;20038;-57
2023/01/08 14:30:47;;;;;;;2.72;1.10;;;;;;;;;;5066962;28;20120;-58
2023/01/08 14:33:14;;;;;;;2.35;1.20;;;;;;;;;;5060338;28;20041;-57
2023/01/08 14:35:39;;;;;;;3.60;1.23;;;;;;;;;;5071090;28;20423;-56
2023/01/08 14:38:10;;;;;;;3.55;1.20;;;;;;;;;;5067164;28;20024;-57
2023/01/08 14:40:40;;;;;;;3.05;1.30;;;;;;;;;;5070442;28;20039;-56
2023/01/08 14:43:10;;;;;;;1.50;1.20;;;;;;;;;;5069758;28;20097;-61
2023/01/08 14:45:38;;;;;;;2.30;1.10;;;;;;;;;;5051324;28;20033;-55
2023/01/08 14:48:16;;;;;;;2.42;1.25;;;;;;;;;;5067026;28;20029;-58
2023/01/08 14:50:44;;;;;;;1.98;1.30;;;;;;;;;;5062985;28;20078;-60
2023/01/08 14:53:27;;;;;;;2.55;1.38;;;;;;;;;;5061701;28;20739;-60
2023/01/08 14:55:55;;;;;;;3.58;1.35;;;;;;;;;;5089810;28;20036;-60
2023/01/08 14:58:27;;;;;;;2.40;1.00;;;;;;;;;;5086654;28;20049;-60